Latest METARs, TAFs and NOTAMs for MMTO


---------------------------------------------------------------------------
	(OBSERVATIONS)
MMTO 301348Z 25003KT 7SM  SKC 07/M03 A3036 RMK HZY=
MMTO 301246Z 00000KT 4SM  SKC 02/M03 A3034 RMK AC=
MMTO 301147Z 00000KT 6SM  SKC 03/M02 A3033  RMK SLP104 57010
    911 CI=
---------------------------------------------------------------------------
	(TERMINAL AREA FORECAST)
MMTO 301118Z 3012/3118 00000KT 6SM HZ SKC TX24/3020Z
    TN03/3012Z
    TEMPO 3012/3016 4SM HZ
    FM301800 22012KT P6SM SCT015 BKN250
    FM310600 32005KT P6SM SCT250
    TEMPO 3111/3115 4SM HZ
    FM311700 16012KT P6SM SCT015 BKN250=
---------------------------------------------------------------------------
	(NOTAMS)


MMTO A0572/17 CHANGED NAME OF THE FOLLOWING REPORTING POINTS:
    LIMBO TO TAKUG NOGAL TO LENEG PUBLISHED IN CHART AD-MMTO-LL-1,
    AD-MMTO-LL-4, AD-MMTO-LL-7-RNAV/LL-8-RNAV PUBLISHED IN ANEX
    TO SUP 06/12 DATE 21-SEP-2012 MEXICO AIP. 27 JAN 03:46 2017
    UNTIL PERM. CREATED: 27 JAN 04:02 2017

---------------------------------------------------------------------------